Time;durP1;ratioP1;P1;durP2;ratioP2;P2;SDS_P1;SDS_P2;PMS_P1;PMS_P2;Temp;Humidity;BMP_temperature;BMP_pressure;BME280_temperature;BME280_humidity;BME280_pressure;Samples;Min_cycle;Max_cycle;Signal;HPM_P1;HPM_P2
2021/06/19 00:00:18;;;;;;;4.05;3.60;;;;;;;20.00;87.80;98372.97;4985045;28;20058;-64
2021/06/19 00:02:44;;;;;;;5.38;3.85;;;;;;;19.96;87.72;98381.31;4985113;28;20026;-64
2021/06/19 00:05:10;;;;;;;3.88;3.47;;;;;;;19.94;88.22;98381.41;4985061;28;20270;-64
2021/06/19 00:07:36;;;;;;;5.57;3.58;;;;;;;19.94;87.70;98381.41;4985043;28;20065;-64
2021/06/19 00:10:04;;;;;;;5.43;3.70;;;;;;;19.91;87.15;98376.22;4985071;28;20282;-64
2021/06/19 00:12:29;;;;;;;4.25;3.35;;;;;;;19.90;87.42;98382.50;4984982;28;20022;-64
2021/06/19 00:14:55;;;;;;;4.82;3.50;;;;;;;19.93;87.31;98393.00;4984873;28;20029;-64
2021/06/19 00:17:20;;;;;;;5.65;3.47;;;;;;;19.92;87.13;98391.31;4985014;28;20046;-64
2021/06/19 00:19:46;;;;;;;7.00;3.65;;;;;;;19.96;87.31;98402.66;4984949;28;20023;-64
2021/06/19 00:22:11;;;;;;;9.00;3.55;;;;;;;19.96;87.10;98408.84;5000526;28;20018;-64
2021/06/19 00:24:38;;;;;;;3.63;3.00;;;;;;;19.98;85.60;98406.97;4999996;28;20042;-64
2021/06/19 00:27:05;;;;;;;3.85;3.08;;;;;;;19.91;85.68;98410.97;4984868;28;20322;-64
2021/06/19 00:29:31;;;;;;;5.45;3.40;;;;;;;19.89;86.58;98407.50;4984838;28;20093;-64
2021/06/19 00:31:57;;;;;;;8.27;3.70;;;;;;;19.93;86.62;98414.38;4984831;28;20027;-64
2021/06/19 00:34:22;;;;;;;5.32;3.08;;;;;;;19.88;86.99;98411.13;4984775;28;20065;-64
2021/06/19 00:36:48;;;;;;;3.85;3.17;;;;;;;19.84;86.51;98417.59;4984808;28;20030;-64
2021/06/19 00:39:13;;;;;;;5.50;3.20;;;;;;;19.71;86.44;98419.28;4984777;28;20034;-64
2021/06/19 00:41:39;;;;;;;3.85;2.88;;;;;;;19.66;86.91;98421.38;4984759;28;20195;-64
2021/06/19 00:44:14;;;;;;;9.23;3.38;;;;;;;19.63;86.73;98418.03;4984725;28;20037;-64
2021/06/19 00:46:39;;;;;;;4.57;3.30;;;;;;;19.61;86.67;98428.78;4984769;28;20048;-64
2021/06/19 00:49:04;;;;;;;3.72;2.60;;;;;;;19.59;86.68;98425.38;4984674;28;20033;-64
2021/06/19 00:51:30;;;;;;;4.60;2.90;;;;;;;19.57;86.56;98427.25;4984634;28;20091;-64
2021/06/19 00:53:56;;;;;;;5.70;3.10;;;;;;;19.58;86.43;98418.28;4984657;28;20026;-64
2021/06/19 00:56:22;;;;;;;6.82;3.10;;;;;;;19.49;86.56;98423.31;4985687;28;20073;-64
2021/06/19 00:58:48;;;;;;;4.22;3.00;;;;;;;19.45;86.85;98427.97;4984509;28;20027;-64
2021/06/19 01:01:13;;;;;;;4.15;2.70;;;;;;;19.38;84.46;98426.59;4984519;28;20046;-64
2021/06/19 01:03:39;;;;;;;5.32;3.15;;;;;;;19.19;85.56;98433.91;4984580;28;20217;-64
2021/06/19 01:06:04;;;;;;;3.95;2.58;;;;;;;18.99;86.59;98434.19;4984536;28;20023;-64
2021/06/19 01:08:30;;;;;;;4.93;2.75;;;;;;;18.98;86.95;98437.78;4984767;28;20023;-64
2021/06/19 01:10:55;;;;;;;3.90;3.15;;;;;;;18.95;87.21;98437.94;4984464;28;20019;-64
2021/06/19 01:13:21;;;;;;;7.45;3.63;;;;;;;18.98;87.98;98432.44;4984519;28;20023;-64
2021/06/19 01:15:46;;;;;;;6.70;3.00;;;;;;;18.92;86.96;98435.47;4984640;28;20023;-64
2021/06/19 01:18:12;;;;;;;8.32;3.15;;;;;;;18.88;87.57;98439.25;4986560;28;20026;-64
2021/06/19 01:20:37;;;;;;;6.93;3.13;;;;;;;18.83;88.31;98438.66;4992935;28;20049;-64
2021/06/19 01:23:03;;;;;;;5.15;2.72;;;;;;;18.84;88.24;98435.03;5007126;28;20038;-64
2021/06/19 01:25:32;;;;;;;4.65;3.22;;;;;;;18.84;88.35;98437.69;5007366;28;20019;-64
2021/06/19 01:27:58;;;;;;;3.45;2.53;;;;;;;18.89;88.06;98438.31;5007327;28;20022;-64
2021/06/19 01:30:27;;;;;;;5.43;3.33;;;;;;;18.90;88.21;98443.56;5007297;28;20305;-64
2021/06/19 01:32:54;;;;;;;6.65;3.20;;;;;;;18.93;88.02;98445.19;5007233;28;20045;-64
2021/06/19 01:35:21;;;;;;;4.78;2.70;;;;;;;18.92;87.16;98449.66;5007110;28;20022;-64
2021/06/19 01:37:49;;;;;;;3.85;2.70;;;;;;;18.86;87.31;98443.81;5007103;28;20018;-64
2021/06/19 01:40:28;;;;;;;4.18;2.90;;;;;;;18.82;87.42;98445.78;5007092;28;20022;-64
2021/06/19 01:42:55;;;;;;;4.38;2.83;;;;;;;18.76;87.33;98438.13;5007083;28;20026;-64
2021/06/19 01:45:27;;;;;;;4.60;3.00;;;;;;;18.73;87.80;98432.09;5006982;28;20046;-64
2021/06/19 01:47:53;;;;;;;8.05;3.50;;;;;;;18.74;87.34;98428.50;5006993;28;20050;-64
2021/06/19 01:50:21;;;;;;;5.20;3.17;;;;;;;18.72;88.04;98419.69;5004546;28;20225;-64
2021/06/19 01:52:47;;;;;;;7.18;2.90;;;;;;;18.66;87.97;98414.69;4987356;28;20306;-64
2021/06/19 01:55:13;;;;;;;4.90;2.53;;;;;;;18.60;87.50;98420.38;4987325;28;20070;-64
2021/06/19 01:57:40;;;;;;;4.93;2.95;;;;;;;18.56;87.16;98409.03;4987255;28;20022;-64
2021/06/19 02:00:07;;;;;;;3.97;2.63;;;;;;;18.52;87.17;98411.94;4987089;28;20089;-64
2021/06/19 02:02:33;;;;;;;5.55;2.50;;;;;;;18.45;86.09;98403.41;4987474;28;20093;-64
2021/06/19 02:04:59;;;;;;;3.30;2.42;;;;;;;18.36;86.54;98406.59;4987148;28;20314;-64
2021/06/19 02:07:25;;;;;;;4.82;2.58;;;;;;;18.27;86.92;98409.72;4987111;28;20310;-64
2021/06/19 02:09:50;;;;;;;4.55;2.40;;;;;;;18.28;86.99;98418.56;4987104;28;20242;-64
2021/06/19 02:12:17;;;;;;;4.63;2.65;;;;;;;18.20;87.14;98410.13;4987015;28;20317;-64
2021/06/19 02:14:43;;;;;;;5.05;3.00;;;;;;;18.08;87.05;98411.63;4986954;28;20019;-64
2021/06/19 02:17:09;;;;;;;4.75;2.40;;;;;;;18.14;87.49;98399.78;4987174;28;20022;-64
2021/06/19 02:19:34;;;;;;;8.50;2.88;;;;;;;18.19;86.83;98411.06;4986900;28;20077;-64
2021/06/19 02:22:00;;;;;;;4.40;2.60;;;;;;;18.13;86.41;98408.72;5005075;28;20026;-64
2021/06/19 02:24:25;;;;;;;10.90;2.90;;;;;;;18.12;86.61;98409.66;5006472;28;20029;-64
2021/06/19 02:26:51;;;;;;;3.85;2.38;;;;;;;17.92;87.12;98404.53;5006207;28;20098;-64
2021/06/19 02:29:16;;;;;;;4.68;2.28;;;;;;;17.87;87.23;98418.06;5005090;28;20333;-64
2021/06/19 02:31:41;;;;;;;3.95;2.50;;;;;;;17.86;87.41;98415.50;5006190;28;20064;-64
2021/06/19 02:34:07;;;;;;;5.50;2.30;;;;;;;17.80;87.33;98415.81;5006158;28;20025;-64
2021/06/19 02:36:32;;;;;;;5.22;2.47;;;;;;;17.79;87.62;98419.41;5005959;28;20022;-64
2021/06/19 02:38:58;;;;;;;6.20;2.30;;;;;;;17.71;87.44;98426.91;5005988;28;20025;-64
2021/06/19 02:41:23;;;;;;;6.88;2.22;;;;;;;17.66;86.83;98426.31;5005959;28;20018;-64
2021/06/19 02:43:48;;;;;;;4.38;2.20;;;;;;;17.63;87.40;98429.13;5005884;28;20030;-64
2021/06/19 02:46:14;;;;;;;4.72;2.08;;;;;;;17.67;87.23;98425.38;5005819;28;20322;-64
2021/06/19 02:48:40;;;;;;;4.72;2.22;;;;;;;17.65;87.10;98429.91;5005824;28;20022;-64
2021/06/19 02:51:05;;;;;;;7.50;2.28;;;;;;;17.59;87.01;98433.72;4994739;28;20221;-64
2021/06/19 02:53:31;;;;;;;4.53;2.20;;;;;;;17.64;87.24;98436.16;4986295;28;20035;-64
2021/06/19 02:55:57;;;;;;;8.07;2.50;;;;;;;17.61;87.59;98436.31;4986122;28;20034;-64
2021/06/19 02:58:22;;;;;;;3.78;2.10;;;;;;;17.63;87.40;98434.44;4986110;28;20018;-64
2021/06/19 03:00:50;;;;;;;3.45;1.90;;;;;;;17.53;86.87;98433.19;4985961;28;20046;-64
2021/06/19 03:03:15;;;;;;;3.05;2.00;;;;;;;17.48;86.97;98435.22;4986094;28;20019;-64
2021/06/19 03:05:41;;;;;;;3.65;2.08;;;;;;;17.43;87.52;98431.94;4986047;28;20030;-64
2021/06/19 03:08:07;;;;;;;4.82;2.15;;;;;;;17.40;87.63;98432.06;4985979;28;20029;-64
2021/06/19 03:10:35;;;;;;;6.30;2.20;;;;;;;17.35;87.50;98439.38;4985957;28;20059;-64
2021/06/19 03:13:01;;;;;;;4.13;1.88;;;;;;;17.41;87.04;98445.28;4968672;28;20101;-64
2021/06/19 03:15:27;;;;;;;6.75;1.92;;;;;;;17.30;87.19;98441.44;4985777;28;20019;-64
2021/06/19 03:17:53;;;;;;;5.22;2.20;;;;;;;17.15;87.36;98443.88;4986074;28;20422;-64
2021/06/19 03:20:19;;;;;;;4.40;1.92;;;;;;;17.17;87.49;98446.47;4989757;28;20014;-64
2021/06/19 03:22:56;;;;;;;3.97;2.20;;;;;;;17.13;87.47;98460.84;5005179;28;20213;-64
2021/06/19 03:25:26;;;;;;;4.78;2.13;;;;;;;17.08;87.28;98447.78;5005168;28;20026;-64
2021/06/19 03:27:51;;;;;;;6.25;2.17;;;;;;;16.97;86.86;98451.91;5005333;28;20030;-64
2021/06/19 03:30:19;;;;;;;3.13;1.95;;;;;;;17.00;87.73;98460.56;5005025;28;20219;-64
2021/06/19 03:32:45;;;;;;;2.13;1.80;;;;;;;17.07;88.12;98461.16;5005010;28;20029;-64
2021/06/19 03:35:11;;;;;;;5.47;2.28;;;;;;;17.01;87.93;98459.66;5004922;28;20045;-64
2021/06/19 03:37:37;;;;;;;3.35;1.90;;;;;;;16.92;88.03;98470.72;5004940;28;20026;-64
2021/06/19 03:40:05;;;;;;;5.93;1.88;;;;;;;16.91;88.15;98471.66;5004548;28;20026;-64
2021/06/19 03:42:30;;;;;;;3.92;2.35;;;;;;;16.80;88.10;98465.97;5005146;28;20030;-64
2021/06/19 03:44:55;;;;;;;9.18;2.17;;;;;;;16.93;88.41;98469.78;5004788;28;20400;-64
2021/06/19 03:47:21;;;;;;;4.22;2.00;;;;;;;17.04;87.96;98461.28;5004743;28;20029;-64
2021/06/19 03:49:46;;;;;;;3.78;1.90;;;;;;;17.02;87.77;98463.16;5002289;28;20056;-64
2021/06/19 03:52:12;;;;;;;5.15;1.98;;;;;;;16.97;87.30;98462.53;4985274;28;20122;-64
2021/06/19 03:54:38;;;;;;;2.75;2.00;;;;;;;17.00;87.52;98468.53;4985191;28;20033;-64
2021/06/19 03:57:07;;;;;;;4.03;2.20;;;;;;;17.05;87.55;98478.97;4985151;28;20031;-64
2021/06/19 03:59:33;;;;;;;4.95;1.90;;;;;;;17.06;88.25;98481.53;4985028;28;20105;-64
2021/06/19 04:01:59;;;;;;;7.82;2.13;;;;;;;17.17;87.96;98468.63;4985100;28;20027;-64
2021/06/19 04:04:24;;;;;;;6.95;2.33;;;;;;;17.27;87.51;98475.22;4985144;28;20266;-64
2021/06/19 04:06:50;;;;;;;5.00;2.10;;;;;;;17.31;85.07;98486.56;4985123;28;20085;-64
2021/06/19 04:09:15;;;;;;;5.20;2.35;;;;;;;17.09;85.93;98475.25;4985079;28;20050;-64
2021/06/19 04:11:42;;;;;;;5.80;2.25;;;;;;;17.04;86.46;98480.78;4985046;28;20038;-64
2021/06/19 04:14:07;;;;;;;6.35;2.10;;;;;;;17.05;87.51;98485.16;4984980;28;20073;-64
2021/06/19 04:16:33;;;;;;;3.50;2.17;;;;;;;17.11;87.89;98487.53;4984898;28;20030;-64
2021/06/19 04:18:58;;;;;;;4.05;2.30;;;;;;;17.20;88.14;98489.75;4984997;28;20030;-64
2021/06/19 04:21:23;;;;;;;5.55;2.38;;;;;;;17.23;87.64;98486.94;4999861;28;20026;-64
2021/06/19 04:23:49;;;;;;;5.68;2.28;;;;;;;17.33;87.67;98494.50;5004346;28;20022;-64
2021/06/19 04:26:14;;;;;;;5.90;2.20;;;;;;;17.49;86.90;98495.50;5004353;28;20026;-64
2021/06/19 04:28:40;;;;;;;3.22;2.25;;;;;;;17.52;86.83;98501.50;5004378;28;20113;-64
2021/06/19 04:31:05;;;;;;;4.60;1.90;;;;;;;17.81;86.73;98500.09;5004307;28;20029;-64
2021/06/19 04:33:31;;;;;;;4.05;1.90;;;;;;;18.65;84.14;98498.31;5004286;28;20022;-64
2021/06/19 04:35:56;;;;;;;4.25;2.10;;;;;;;19.38;80.65;98500.47;5004221;28;20026;-64
2021/06/19 04:38:22;;;;;;;3.33;2.00;;;;;;;19.86;78.46;98498.50;5004487;28;20022;-64
2021/06/19 04:41:01;;;;;;;6.40;1.77;;;;;;;20.31;76.43;98495.81;5004205;28;20029;-64
2021/06/19 04:43:34;;;;;;;4.70;1.77;;;;;;;20.86;74.21;98493.28;5004468;28;20030;-64
2021/06/19 04:45:59;;;;;;;4.25;1.60;;;;;;;21.24;72.76;98495.25;5004250;28;20045;-64
2021/06/19 04:48:24;;;;;;;2.53;1.38;;;;;;;21.64;71.19;98500.72;5004169;28;20321;-64
2021/06/19 04:50:52;;;;;;;4.07;1.77;;;;;;;21.84;70.60;98498.47;4991271;28;20349;-64
2021/06/19 04:53:17;;;;;;;5.93;1.70;;;;;;;22.16;69.03;98497.16;4987328;28;20352;-64
2021/06/19 04:55:43;;;;;;;4.10;1.90;;;;;;;22.63;68.32;98485.88;4988388;28;20038;-64
2021/06/19 04:58:09;;;;;;;3.70;2.05;;;;;;;22.81;67.75;98492.63;4988466;28;20098;-64
2021/06/19 05:00:35;;;;;;;5.95;1.60;;;;;;;22.93;66.65;98484.56;4988191;28;20050;-64
2021/06/19 05:03:01;;;;;;;2.28;1.35;;;;;;;23.32;65.23;98505.03;4988309;28;20269;-64
2021/06/19 05:05:28;;;;;;;3.72;1.30;;;;;;;23.51;65.15;98502.72;4988249;28;20065;-64
2021/06/19 05:07:54;;;;;;;3.30;1.45;;;;;;;23.43;64.12;98490.78;4988237;28;20030;-64
2021/06/19 05:10:19;;;;;;;4.00;1.55;;;;;;;23.96;63.71;98498.47;4988185;28;20085;-64
2021/06/19 05:12:45;;;;;;;2.25;1.40;;;;;;;24.19;63.34;98501.13;4988114;28;20023;-64
2021/06/19 05:15:13;;;;;;;3.70;1.50;;;;;;;24.56;62.60;98494.63;4988288;28;20037;-64
2021/06/19 05:17:39;;;;;;;3.53;1.40;;;;;;;24.93;60.55;98493.47;4987975;28;20023;-64
2021/06/19 05:20:06;;;;;;;3.60;1.42;;;;;;;24.79;60.88;98485.66;4994489;28;20038;-64
2021/06/19 05:22:32;;;;;;;4.82;1.42;;;;;;;24.47;61.12;98486.41;5007385;28;20046;-64
2021/06/19 05:24:58;;;;;;;3.08;1.52;;;;;;;25.27;60.98;98487.09;5007626;28;20033;-64
2021/06/19 05:27:23;;;;;;;3.38;1.38;;;;;;;25.54;60.24;98488.56;5007341;28;20329;-64
2021/06/19 05:29:49;;;;;;;2.20;1.40;;;;;;;25.54;59.85;98483.16;5007299;28;20085;-64
2021/06/19 05:32:14;;;;;;;2.80;1.35;;;;;;;26.09;59.56;98480.31;5007249;28;20037;-64
2021/06/19 05:34:41;;;;;;;4.53;1.30;;;;;;;26.58;60.21;98488.66;5007146;28;20053;-64
2021/06/19 05:37:08;;;;;;;2.85;1.20;;;;;;;26.15;57.43;98477.09;5007115;28;20031;-64
2021/06/19 05:39:33;;;;;;;2.20;1.23;;;;;;;26.65;56.65;98481.75;5007389;28;20372;-64
2021/06/19 05:41:58;;;;;;;4.78;1.60;;;;;;;26.77;57.50;98480.72;5007331;28;20026;-64
2021/06/19 05:44:24;;;;;;;2.60;1.23;;;;;;;27.07;57.56;98483.41;5007013;28;20022;-64
2021/06/19 05:46:50;;;;;;;2.50;1.20;;;;;;;27.32;56.66;98482.97;5007058;28;20034;-64
2021/06/19 05:49:15;;;;;;;4.07;1.40;;;;;;;27.73;54.65;98479.22;5004433;28;21094;-64
2021/06/19 05:51:40;;;;;;;4.00;1.30;;;;;;;27.35;56.13;98474.59;4987435;28;20027;-64
2021/06/19 05:54:06;;;;;;;2.58;1.15;;;;;;;27.74;55.23;98472.84;4987381;28;20034;-64
2021/06/19 05:56:31;;;;;;;3.63;1.40;;;;;;;27.68;54.64;98476.94;4987296;28;20187;-64
2021/06/19 05:58:57;;;;;;;3.28;1.25;;;;;;;28.35;53.70;98475.16;4987277;28;20037;-64
2021/06/19 06:01:22;;;;;;;6.65;1.50;;;;;;;28.48;54.61;98478.47;4987096;28;20069;-64
2021/06/19 06:03:48;;;;;;;4.00;1.25;;;;;;;28.71;52.26;98474.44;4987027;28;20027;-64
2021/06/19 06:06:17;;;;;;;5.32;1.35;;;;;;;28.66;52.72;98474.00;4987154;28;20065;-64
2021/06/19 06:08:44;;;;;;;6.63;1.60;;;;;;;28.47;51.71;98465.06;4987110;28;20134;-64
2021/06/19 06:11:09;;;;;;;2.15;1.10;;;;;;;29.08;52.38;98472.59;4987071;28;20122;-64
2021/06/19 06:13:35;;;;;;;2.70;1.10;;;;;;;29.31;49.48;98477.66;4987269;28;20022;-64
2021/06/19 06:16:01;;;;;;;3.17;1.10;;;;;;;29.50;49.44;98477.56;4992612;28;20253;-64
2021/06/19 06:18:26;;;;;;;3.10;0.90;;;;;;;28.98;50.88;98479.88;5006422;28;20089;-64
2021/06/19 06:20:52;;;;;;;4.10;1.40;;;;;;;29.37;50.72;98479.75;5005829;28;20085;-64
2021/06/19 06:23:18;;;;;;;5.68;1.20;;;;;;;30.00;50.23;98476.13;5006365;28;20030;-64
2021/06/19 06:25:44;;;;;;;4.35;1.23;;;;;;;29.76;49.39;98473.13;5006340;28;20122;-64
2021/06/19 06:28:09;;;;;;;4.45;1.17;;;;;;;30.37;48.15;98474.13;5006392;28;20048;-64
2021/06/19 06:30:35;;;;;;;2.38;1.02;;;;;;;30.30;46.42;98479.31;5006184;28;20050;-64
2021/06/19 06:33:00;;;;;;;1.77;0.90;;;;;;;30.27;47.23;98485.06;5006141;28;20034;-65
2021/06/19 06:35:26;;;;;;;3.10;1.20;;;;;;;30.35;46.50;98487.00;5006025;28;20028;-65
2021/06/19 06:37:51;;;;;;;1.65;1.00;;;;;;;30.67;44.00;98496.28;5006014;28;20098;-65
2021/06/19 06:40:18;;;;;;;4.05;0.90;;;;;;;31.02;44.33;98498.09;5006002;28;20030;-65
2021/06/19 06:42:43;;;;;;;5.72;0.85;;;;;;;30.99;43.00;98492.97;5005961;28;20026;-65
2021/06/19 06:45:11;;;;;;;1.85;0.70;;;;;;;31.02;44.89;98492.66;5005981;28;20037;-65
2021/06/19 06:47:38;;;;;;;1.58;0.70;;;;;;;30.97;47.84;98484.13;5005906;28;20085;-65
2021/06/19 06:50:05;;;;;;;0.85;0.65;;;;;;;31.71;43.37;98501.53;4994681;28;20026;-65
2021/06/19 06:52:31;;;;;;;1.92;0.85;;;;;;;32.03;40.97;98498.94;4986278;28;20033;-65
2021/06/19 06:54:56;;;;;;;3.08;0.73;;;;;;;31.88;42.14;98503.31;4986170;28;20030;-65
2021/06/19 06:57:22;;;;;;;2.80;0.95;;;;;;;32.23;40.56;98503.03;4986196;28;20023;-65
2021/06/19 06:59:47;;;;;;;0.88;0.80;;;;;;;32.28;40.53;98508.84;4986022;28;20097;-65
2021/06/19 07:02:13;;;;;;;2.85;0.98;;;;;;;32.46;41.92;98504.09;4986189;28;20387;-65
2021/06/19 07:04:38;;;;;;;2.53;0.82;;;;;;;31.83;42.07;98510.28;4986063;28;20022;-65
2021/06/19 07:07:03;;;;;;;2.90;0.80;;;;;;;32.37;40.06;98501.56;4986060;28;20046;-65
2021/06/19 07:09:29;;;;;;;1.25;0.60;;;;;;;32.51;40.86;98507.19;4999370;28;20069;-66
2021/06/19 07:11:55;;;;;;;1.20;0.75;;;;;;;32.76;38.69;98500.72;5005333;28;20026;-66
2021/06/19 07:14:21;;;;;;;2.42;0.65;;;;;;;32.52;40.64;98497.16;5008175;28;20241;-64
2021/06/19 07:16:46;;;;;;;3.15;0.70;;;;;;;31.93;42.92;98503.66;5004013;28;20030;-64
2021/06/19 07:19:12;;;;;;;0.88;0.52;;;;;;;32.06;40.71;98497.72;5004691;28;20022;-64
2021/06/19 07:21:37;;;;;;;1.65;0.68;;;;;;;32.48;38.24;98499.34;5005161;28;20030;-64
2021/06/19 07:24:03;;;;;;;1.27;0.57;;;;;;;32.74;37.36;98497.28;5004883;28;20031;-64
2021/06/19 07:26:29;;;;;;;2.15;0.80;;;;;;;32.68;38.17;98495.25;5005049;28;20257;-64
2021/06/19 07:28:54;;;;;;;1.67;0.60;;;;;;;32.85;38.55;98499.72;5005115;28;20041;-64
2021/06/19 07:31:20;;;;;;;0.98;0.65;;;;;;;33.16;38.02;98494.38;5004140;28;20038;-64
2021/06/19 07:33:45;;;;;;;1.00;0.50;;;;;;;33.59;37.37;98504.00;5001801;28;20025;-64
2021/06/19 07:36:11;;;;;;;4.13;0.80;;;;;;;32.93;40.05;98502.41;5003145;28;20022;-64
2021/06/19 07:38:36;;;;;;;1.25;0.80;;;;;;;33.25;38.67;98503.38;5001772;28;20034;-64
2021/06/19 07:41:02;;;;;;;0.50;0.40;;;;;;;33.54;35.63;98490.00;5012141;28;20032;-64
2021/06/19 07:43:28;;;;;;;1.35;0.60;;;;;;;33.42;37.64;98480.50;5008549;28;20030;-64
2021/06/19 07:45:56;;;;;;;1.58;0.75;;;;;;;33.26;38.01;98485.97;5004828;28;20229;-64
2021/06/19 07:48:21;;;;;;;2.38;0.68;;;;;;;33.45;37.90;98480.13;5003735;28;20195;-64
2021/06/19 07:50:47;;;;;;;3.28;0.90;;;;;;;33.72;36.62;98471.50;5004194;28;20045;-64
2021/06/19 07:53:12;;;;;;;9.23;0.82;;;;;;;34.15;37.13;98454.53;4987986;28;20031;-64
2021/06/19 07:55:38;;;;;;;0.90;0.50;;;;;;;33.86;37.82;98457.97;5005435;28;20018;-64
2021/06/19 07:58:04;;;;;;;2.13;0.80;;;;;;;34.40;37.09;98467.00;4999910;28;20261;-64
2021/06/19 08:00:30;;;;;;;0.85;0.50;;;;;;;34.59;34.30;98467.38;4985068;28;20234;-64
2021/06/19 08:02:56;;;;;;;1.13;0.60;;;;;;;34.39;34.94;98462.59;4985444;28;20026;-64
2021/06/19 08:05:22;;;;;;;0.80;0.50;;;;;;;34.01;35.50;98458.88;4995726;28;20089;-64
2021/06/19 08:07:47;;;;;;;2.50;0.50;;;;;;;34.32;36.27;98458.84;5004500;28;20021;-64
2021/06/19 08:10:13;;;;;;;2.85;0.70;;;;;;;33.93;37.01;98458.09;5004465;28;20029;-64
2021/06/19 08:12:40;;;;;;;2.10;0.70;;;;;;;33.80;35.88;98452.31;5004742;28;20212;-64
2021/06/19 08:15:06;;;;;;;1.90;0.60;;;;;;;33.35;37.57;98452.19;5003309;28;20202;-64
2021/06/19 08:17:31;;;;;;;2.95;0.98;;;;;;;33.60;35.80;98451.09;4990723;28;20022;-64
2021/06/19 08:19:57;;;;;;;1.58;0.63;;;;;;;34.03;34.35;98447.78;4996137;28;20041;-64
2021/06/19 08:22:22;;;;;;;2.83;1.08;;;;;;;34.27;34.60;98444.88;4997796;28;20226;-64
2021/06/19 08:24:48;;;;;;;2.35;0.68;;;;;;;34.53;35.66;98445.38;5004186;28;20018;-64
2021/06/19 08:27:14;;;;;;;2.05;0.77;;;;;;;34.43;33.76;98442.91;4994181;28;20026;-64
2021/06/19 08:29:40;;;;;;;2.83;0.85;;;;;;;34.77;34.45;98445.97;5007527;28;20045;-65
2021/06/19 08:32:08;;;;;;;1.75;0.60;;;;;;;34.85;34.30;98437.75;5008421;28;20018;-65
2021/06/19 08:34:34;;;;;;;1.98;0.60;;;;;;;34.04;36.62;98439.38;5008141;28;20209;-64
2021/06/19 08:36:59;;;;;;;1.08;0.63;;;;;;;34.50;34.33;98434.78;5008263;28;20018;-64
2021/06/19 08:39:24;;;;;;;2.15;0.68;;;;;;;35.12;32.94;98435.38;5008046;28;20316;-64
2021/06/19 08:41:54;;;;;;;3.13;0.70;;;;;;;35.56;32.16;98422.56;5007489;28;20057;-64
2021/06/19 08:44:24;;;;;;;3.00;0.60;;;;;;;35.38;33.09;98417.47;5007409;28;20053;-64
2021/06/19 08:46:51;;;;;;;1.80;0.85;;;;;;;35.21;34.48;98413.22;5000888;28;20026;-64
2021/06/19 08:49:17;;;;;;;2.45;0.70;;;;;;;35.61;31.66;98409.97;5008077;28;20018;-64
2021/06/19 08:51:44;;;;;;;2.17;0.77;;;;;;;35.58;34.17;98404.88;5008695;28;20041;-64
2021/06/19 08:54:09;;;;;;;3.65;0.70;;;;;;;35.19;33.35;98392.53;4995888;28;20037;-64
2021/06/19 08:56:34;;;;;;;1.00;0.57;;;;;;;34.84;35.99;98381.34;5007406;28;20030;-64
2021/06/19 08:59:03;;;;;;;2.25;0.90;;;;;;;34.52;33.48;98372.59;5003203;28;20033;-64
2021/06/19 09:01:28;;;;;;;2.03;0.75;;;;;;;34.67;36.53;98368.00;4988404;28;20038;-64
2021/06/19 09:03:54;;;;;;;3.42;1.00;;;;;;;34.28;34.70;98359.97;4981856;28;20015;-64
2021/06/19 09:06:27;;;;;;;1.58;0.73;;;;;;;34.16;33.82;98349.66;4976015;28;20025;-64
2021/06/19 09:09:07;;;;;;;2.35;0.80;;;;;;;34.35;36.23;98343.66;4977303;28;20046;-64
2021/06/19 09:11:37;;;;;;;1.85;0.70;;;;;;;33.47;35.99;98336.19;4981981;28;20022;-64
2021/06/19 09:14:07;;;;;;;1.63;0.60;;;;;;;33.56;35.56;98324.19;4987220;28;20022;-64
2021/06/19 09:16:32;;;;;;;2.70;0.60;;;;;;;33.26;39.14;98327.72;4979416;28;20238;-64
2021/06/19 09:18:58;;;;;;;1.48;0.80;;;;;;;33.49;38.31;98313.13;4976797;28;20065;-64
2021/06/19 09:21:29;;;;;;;1.85;0.70;;;;;;;33.72;38.66;98308.50;4981773;28;20211;-64
2021/06/19 09:23:55;;;;;;;8.65;1.05;;;;;;;32.86;39.34;98307.81;4983897;28;20058;-64
2021/06/19 09:26:26;;;;;;;2.42;0.80;;;;;;;33.62;39.78;98296.16;4973411;28;20023;-64
2021/06/19 09:28:59;;;;;;;5.00;0.88;;;;;;;34.50;37.68;98295.38;4985945;28;20230;-64
2021/06/19 09:31:41;;;;;;;1.15;0.90;;;;;;;33.95;37.58;98298.47;4987772;28;20369;-64
2021/06/19 09:34:07;;;;;;;1.38;0.70;;;;;;;34.53;36.92;98298.59;4987293;28;20179;-64
2021/06/19 09:36:37;;;;;;;2.15;0.98;;;;;;;34.14;37.40;98288.91;4987266;28;20119;-64
2021/06/19 09:39:07;;;;;;;3.87;1.30;;;;;;;33.74;37.45;98294.69;4987140;28;20027;-64
2021/06/19 09:41:34;;;;;;;5.00;1.00;;;;;;;34.45;35.45;98289.63;4987811;28;20018;-64
2021/06/19 09:44:00;;;;;;;3.00;0.90;;;;;;;34.22;36.23;98294.28;4987633;28;20203;-64
2021/06/19 09:46:25;;;;;;;4.88;1.00;;;;;;;35.16;35.50;98295.28;4987536;28;20039;-64
2021/06/19 09:48:51;;;;;;;3.30;1.05;;;;;;;35.38;34.05;98294.31;4986758;28;20015;-64
2021/06/19 09:51:24;;;;;;;3.40;1.13;;;;;;;35.27;35.03;98274.78;4987552;28;20050;-64
2021/06/19 09:53:53;;;;;;;4.85;1.30;;;;;;;35.27;37.04;98292.00;4986767;28;20246;-64
2021/06/19 09:56:21;;;;;;;2.67;0.95;;;;;;;34.93;35.34;98284.44;4983577;28;20027;-64
2021/06/19 09:58:53;;;;;;;3.80;1.17;;;;;;;34.45;34.92;98286.91;4970805;28;20045;-64
2021/06/19 10:01:37;;;;;;;2.42;1.17;;;;;;;34.82;37.23;98286.78;5001217;28;20049;-64
2021/06/19 10:04:04;;;;;;;3.70;1.23;;;;;;;33.83;37.62;98282.66;5010985;28;20048;-64
2021/06/19 10:06:31;;;;;;;5.70;1.25;;;;;;;33.79;37.82;98293.13;5006672;28;20029;-64
2021/06/19 10:08:58;;;;;;;5.10;1.73;;;;;;;34.94;36.49;98286.16;5002053;28;20042;-64
2021/06/19 10:11:26;;;;;;;7.97;1.63;;;;;;;34.04;36.06;98277.41;4996382;28;20028;-64
2021/06/19 10:13:53;;;;;;;3.15;1.30;;;;;;;34.63;36.53;98277.28;5014127;28;20217;-64
2021/06/19 10:16:19;;;;;;;3.33;1.30;;;;;;;35.40;36.21;98275.78;5014842;28;20022;-64
2021/06/19 10:18:46;;;;;;;4.15;1.35;;;;;;;35.08;36.71;98276.22;5013612;28;20021;-64
2021/06/19 10:21:13;;;;;;;8.40;1.90;;;;;;;35.48;36.86;98275.66;5014693;28;20368;-64
2021/06/19 10:23:39;;;;;;;3.70;1.45;;;;;;;35.90;34.71;98278.41;5008119;28;20038;-64
2021/06/19 10:26:05;;;;;;;5.25;1.45;;;;;;;35.89;37.09;98279.47;5013327;28;20317;-64
2021/06/19 10:28:34;;;;;;;4.18;1.55;;;;;;;35.96;35.14;98277.63;5013874;28;20025;-64
2021/06/19 10:31:00;;;;;;;5.28;1.70;;;;;;;35.35;33.69;98270.06;5013882;28;20057;-64
2021/06/19 10:33:36;;;;;;;6.13;1.50;;;;;;;35.85;34.59;98267.22;4992489;28;20321;-64
2021/06/19 10:36:10;;;;;;;6.00;1.60;;;;;;;35.49;34.91;98263.66;5021955;28;20060;-64
2021/06/19 10:38:53;;;;;;;6.38;1.80;;;;;;;35.50;33.49;98265.38;5025684;28;20025;-64
2021/06/19 10:41:22;;;;;;;6.55;1.88;;;;;;;34.98;35.25;98262.00;5013535;28;20023;-64
2021/06/19 10:43:49;;;;;;;5.90;1.52;;;;;;;35.01;34.09;98263.50;5005943;28;20022;-64
2021/06/19 10:46:32;;;;;;;7.65;1.92;;;;;;;33.79;36.52;98263.09;5005942;28;20022;-64
2021/06/19 10:48:59;;;;;;;8.00;1.83;;;;;;;34.18;38.54;98265.63;5005936;28;20027;-64
2021/06/19 10:51:27;;;;;;;7.07;1.85;;;;;;;35.02;36.22;98259.72;5004887;28;20026;-64
2021/06/19 10:54:10;;;;;;;6.28;1.67;;;;;;;34.91;35.54;98263.81;5005794;28;20257;-64
2021/06/19 10:56:54;;;;;;;5.30;1.98;;;;;;;35.16;35.35;98272.50;5005961;28;20267;-64
2021/06/19 10:59:22;;;;;;;5.18;1.63;;;;;;;34.82;35.15;98264.91;5007659;28;20356;-64
2021/06/19 11:01:53;;;;;;;7.75;1.55;;;;;;;34.03;36.78;98262.00;4986167;28;20090;-64
2021/06/19 11:04:40;;;;;;;6.28;1.85;;;;;;;33.78;39.02;98257.81;4987833;28;20031;-64
2021/06/19 11:07:09;;;;;;;8.32;1.73;;;;;;;34.35;36.89;98248.00;4986070;28;20022;-64
2021/06/19 11:09:36;;;;;;;5.97;1.95;;;;;;;34.61;36.27;98251.19;4986038;28;20026;-64
2021/06/19 11:12:03;;;;;;;5.97;1.80;;;;;;;34.46;36.84;98237.53;5002245;28;20027;-64
2021/06/19 11:14:47;;;;;;;9.82;2.20;;;;;;;34.30;36.10;98239.56;4993572;28;20340;-64
2021/06/19 11:17:15;;;;;;;6.18;1.73;;;;;;;32.98;36.79;98235.50;4985901;28;20098;-64
2021/06/19 11:19:49;;;;;;;9.95;2.00;;;;;;;32.78;38.92;98236.91;4989806;28;20027;-64
2021/06/19 11:22:38;;;;;;;6.20;1.63;;;;;;;33.07;39.17;98236.28;4994744;28;20023;-64
2021/06/19 11:25:24;;;;;;;8.88;2.00;;;;;;;33.83;38.88;98239.81;4999001;28;20025;-64
2021/06/19 11:27:53;;;;;;;5.22;1.80;;;;;;;33.91;39.16;98236.22;5009608;28;20061;-64
2021/06/19 11:30:33;;;;;;;9.10;2.00;;;;;;;34.29;37.62;98230.50;5014813;28;20026;-64
2021/06/19 11:33:20;;;;;;;8.10;2.53;;;;;;;33.77;35.96;98217.84;5012180;28;20056;-64